createdAt,value
2022-09-10T00:01:41.188Z,13.89
2022-09-10T00:04:13.278Z,13.92
2022-09-10T00:06:43.074Z,13.99
2022-09-10T00:09:13.981Z,14.18
2022-09-10T00:11:43.788Z,14.29
2022-09-10T00:14:15.994Z,14.31
2022-09-10T00:16:45.407Z,14.30
2022-09-10T00:19:15.224Z,14.27
2022-09-10T00:21:45.375Z,14.30
2022-09-10T00:24:15.161Z,14.16
2022-09-10T00:26:44.384Z,14.16
2022-09-10T00:29:16.198Z,14.10
2022-09-10T00:31:45.700Z,14.10
2022-09-10T00:34:15.618Z,13.92
2022-09-10T00:36:45.357Z,13.92
2022-09-10T00:39:17.103Z,14.08
2022-09-10T00:41:48.337Z,14.16
2022-09-10T00:44:44.027Z,14.36
2022-09-10T00:47:24.933Z,14.36
2022-09-10T00:50:05.700Z,14.17
2022-09-10T00:52:39.619Z,14.17
2022-09-10T00:55:07.874Z,14.23
2022-09-10T00:57:37.429Z,14.23
2022-09-10T01:00:12.366Z,14.36
2022-09-10T01:02:41.955Z,14.51
2022-09-10T01:05:12.343Z,14.59
2022-09-10T01:07:41.325Z,14.58
2022-09-10T01:10:16.175Z,14.58
2022-09-10T01:13:22.197Z,14.73
2022-09-10T01:16:09.232Z,14.73
2022-09-10T01:18:57.377Z,14.75
2022-09-10T01:21:32.310Z,14.75
2022-09-10T01:24:30.230Z,14.61
2022-09-10T01:27:37.137Z,14.45
2022-09-10T01:30:09.373Z,14.46
2022-09-10T01:32:49.705Z,14.27
2022-09-10T01:35:30.580Z,14.22
2022-09-10T01:38:04.149Z,14.41
2022-09-10T01:40:35.434Z,14.47
2022-09-10T01:43:10.079Z,14.26
2022-09-10T01:45:51.038Z,14.51
2022-09-10T01:48:31.656Z,14.32
2022-09-10T01:51:34.266Z,14.64
2022-09-10T01:54:28.660Z,14.52
2022-09-10T01:57:09.162Z,14.41
2022-09-10T01:59:42.186Z,14.41
2022-09-10T02:02:22.815Z,14.37
2022-09-10T02:04:54.479Z,14.24
2022-09-10T02:07:26.936Z,14.21
2022-09-10T02:09:57.476Z,14.36
2022-09-10T02:12:26.644Z,14.48
2022-09-10T02:14:58.393Z,14.69
2022-09-10T02:17:33.818Z,14.52
2022-09-10T02:20:05.357Z,14.52
2022-09-10T02:22:40.077Z,14.30
2022-09-10T02:25:10.152Z,14.27
2022-09-10T02:27:39.288Z,14.62
2022-09-10T02:30:10.379Z,14.49
2022-09-10T02:32:39.345Z,14.41
2022-09-10T02:35:09.111Z,14.34
2022-09-10T02:37:38.066Z,14.18
2022-09-10T02:40:08.298Z,14.10
2022-09-10T02:42:38.381Z,14.44
2022-09-10T02:45:08.385Z,14.44
2022-09-10T02:47:37.295Z,14.09
2022-09-10T02:50:07.698Z,14.09
2022-09-10T02:52:37.396Z,14.49
2022-09-10T02:55:07.017Z,14.30
2022-09-10T02:57:36.070Z,14.48
2022-09-10T03:00:06.054Z,14.52
2022-09-10T03:02:35.062Z,14.52
2022-09-10T03:05:07.630Z,14.22
2022-09-10T03:07:36.660Z,14.21
2022-09-10T03:10:06.202Z,14.07
2022-09-10T03:12:35.191Z,14.35
2022-09-10T03:15:05.204Z,14.36
2022-09-10T03:17:34.185Z,14.42
2022-09-10T03:20:03.357Z,14.23
2022-09-10T03:22:32.387Z,14.15
2022-09-10T03:25:01.339Z,14.36
2022-09-10T03:27:30.574Z,14.34
2022-09-10T03:29:59.571Z,14.21
2022-09-10T03:32:28.657Z,14.21
2022-09-10T03:34:57.621Z,14.07
2022-09-10T03:37:26.991Z,14.07
2022-09-10T03:39:56.045Z,14.17
2022-09-10T03:42:25.425Z,14.19
2022-09-10T03:44:56.061Z,14.04
2022-09-10T03:47:25.103Z,13.87
2022-09-10T03:49:54.107Z,13.84
2022-09-10T03:52:23.143Z,13.88
2022-09-10T03:54:52.152Z,14.06
2022-09-10T03:57:21.241Z,14.04
2022-09-10T03:59:50.279Z,13.97
2022-09-10T04:02:19.339Z,14.10
2022-09-10T04:04:48.418Z,13.92
2022-09-10T04:07:17.309Z,14.03
2022-09-10T04:09:46.522Z,13.94
2022-09-10T04:12:15.571Z,13.94
2022-09-10T04:14:46.404Z,13.93
2022-09-10T04:17:15.368Z,14.05
2022-09-10T04:19:44.357Z,14.04
2022-09-10T04:22:13.516Z,14.20
2022-09-10T04:24:42.457Z,14.27
2022-09-10T04:27:11.417Z,14.27
2022-09-10T04:29:41.146Z,14.46
2022-09-10T04:32:10.132Z,14.12
2022-09-10T04:34:39.102Z,14.18
2022-09-10T04:37:08.090Z,14.25
2022-09-10T04:39:37.294Z,14.33
2022-09-10T04:42:08.281Z,14.33
2022-09-10T04:44:37.505Z,14.21
2022-09-10T04:47:06.465Z,14.16
2022-09-10T04:49:35.408Z,14.16
2022-09-10T04:52:04.551Z,14.09
2022-09-10T04:54:37.954Z,14.06
2022-09-10T04:57:07.942Z,14.34
2022-09-10T04:59:38.491Z,14.25
2022-09-10T05:02:09.557Z,14.25
2022-09-10T05:04:39.710Z,14.28
2022-09-10T05:07:08.656Z,14.37
2022-09-10T05:09:38.258Z,14.37
2022-09-10T05:12:07.637Z,14.37
2022-09-10T05:14:36.476Z,14.41
2022-09-10T05:17:05.423Z,14.34
2022-09-10T05:19:34.545Z,14.32
2022-09-10T05:22:03.791Z,14.32
2022-09-10T05:24:34.613Z,14.16
2022-09-10T05:27:03.799Z,14.37
2022-09-10T05:29:32.873Z,14.50
2022-09-10T05:32:01.800Z,14.50
2022-09-10T05:34:30.764Z,14.87
2022-09-10T05:36:59.758Z,14.52
2022-09-10T05:39:28.763Z,14.52
2022-09-10T05:41:57.929Z,14.93
2022-09-10T05:44:27.027Z,14.93
2022-09-10T05:46:55.998Z,15.12
2022-09-10T05:49:25.019Z,15.25
2022-09-10T05:51:54.053Z,14.96
2022-09-10T05:54:23.140Z,14.94
2022-09-10T05:56:52.475Z,14.92
2022-09-10T05:59:21.470Z,14.90
2022-09-10T06:01:52.490Z,14.96
2022-09-10T06:04:21.706Z,14.74
2022-09-10T06:06:50.576Z,14.91
2022-09-10T06:09:19.855Z,14.74
2022-09-10T06:11:51.986Z,14.49
2022-09-10T06:14:21.058Z,14.46
2022-09-10T06:16:50.228Z,14.57
2022-09-10T06:19:20.235Z,14.89
2022-09-10T06:21:53.512Z,15.00
2022-09-10T06:24:23.874Z,15.22
2022-09-10T06:26:53.055Z,15.08
2022-09-10T06:29:22.834Z,14.62
2022-09-10T06:31:51.846Z,14.87
2022-09-10T06:34:20.812Z,14.84
2022-09-10T06:36:50.931Z,14.89
2022-09-10T06:39:20.093Z,14.83
2022-09-10T06:41:49.830Z,14.68
2022-09-10T06:44:19.035Z,14.85
2022-09-10T06:47:45.939Z,14.85
2022-09-10T06:49:18.978Z,14.79
2022-09-10T06:51:49.573Z,14.42
2022-09-10T06:54:19.480Z,14.41
2022-09-10T06:56:50.029Z,14.38
2022-09-10T06:59:19.042Z,14.46
2022-09-10T07:01:48.398Z,14.46
2022-09-10T07:04:17.388Z,14.69
2022-09-10T07:06:47.806Z,14.98
2022-09-10T07:09:16.969Z,15.12
2022-09-10T07:11:45.953Z,15.41
2022-09-10T07:14:15.166Z,15.41
2022-09-10T07:16:44.907Z,15.55
2022-09-10T07:19:15.359Z,16.00
2022-09-10T07:21:45.026Z,15.73
2022-09-10T07:24:14.743Z,16.15
2022-09-10T07:26:43.986Z,16.27
2022-09-10T07:29:13.199Z,16.29
2022-09-10T07:31:42.463Z,16.59
2022-09-10T07:34:11.816Z,16.75
2022-09-10T07:36:40.809Z,16.11
2022-09-10T07:39:11.583Z,16.14
2022-09-10T07:41:40.604Z,16.36
2022-09-10T07:44:09.625Z,16.63
2022-09-10T07:46:38.992Z,16.69
2022-09-10T07:49:08.024Z,16.15
2022-09-10T07:51:37.000Z,16.37
2022-09-10T07:54:06.220Z,16.37
2022-09-10T07:56:36.676Z,16.39
2022-09-10T07:59:05.657Z,16.21
2022-09-10T08:01:34.600Z,15.91
2022-09-10T08:04:05.312Z,16.03
2022-09-10T08:06:34.226Z,16.22
2022-09-10T08:09:04.699Z,16.22
2022-09-10T08:11:34.877Z,16.11
2022-09-10T08:14:03.889Z,16.28
2022-09-10T08:16:33.467Z,16.24
2022-09-10T08:19:02.934Z,16.28
2022-09-10T08:21:32.067Z,16.28
2022-09-10T08:24:01.163Z,16.57
2022-09-10T08:26:30.193Z,16.59
2022-09-10T08:28:59.489Z,16.52
2022-09-10T08:31:28.613Z,16.52
2022-09-10T08:33:58.044Z,16.43
2022-09-10T08:36:29.201Z,16.35
2022-09-10T08:39:02.172Z,16.37
2022-09-10T08:41:35.993Z,16.38
2022-09-10T08:44:16.069Z,16.66
2022-09-10T08:47:00.087Z,16.13
2022-09-10T08:49:52.936Z,15.98
2022-09-10T08:52:37.761Z,16.00
2022-09-10T08:55:24.589Z,16.26
2022-09-10T08:58:02.607Z,16.40
2022-09-10T09:00:38.033Z,16.33
2022-09-10T09:03:13.026Z,16.40
2022-09-10T09:05:50.952Z,16.52
2022-09-10T09:08:23.299Z,16.56
2022-09-10T09:11:12.104Z,16.56
2022-09-10T09:13:49.620Z,16.89
2022-09-10T09:16:37.210Z,16.94
2022-09-10T09:19:22.466Z,16.95
2022-09-10T09:21:56.830Z,17.12
2022-09-10T09:24:31.714Z,17.12
2022-09-10T09:27:03.965Z,17.24
2022-09-10T09:29:39.070Z,17.41
2022-09-10T09:32:09.939Z,17.41
2022-09-10T09:34:44.575Z,17.30
2022-09-10T09:37:16.803Z,17.32
2022-09-10T09:39:48.751Z,17.44
2022-09-10T09:42:32.492Z,17.81
2022-09-10T09:45:28.654Z,17.94
2022-09-10T09:47:58.192Z,18.31
2022-09-10T09:50:27.388Z,18.31
2022-09-10T09:52:57.837Z,19.16
2022-09-10T09:55:39.047Z,18.94
2022-09-10T09:58:26.994Z,18.94
2022-09-10T10:01:08.445Z,19.14
2022-09-10T10:03:50.650Z,19.18
2022-09-10T10:06:22.582Z,19.12
2022-09-10T10:08:57.532Z,18.98
2022-09-10T10:11:41.569Z,18.62
2022-09-10T10:14:16.736Z,18.71
2022-09-10T10:16:47.479Z,18.71
2022-09-10T10:19:22.527Z,18.93
2022-09-10T10:21:51.487Z,18.93
2022-09-10T10:24:34.818Z,18.97
2022-09-10T10:27:03.874Z,19.10
2022-09-10T10:29:33.393Z,18.93
2022-09-10T10:32:05.583Z,18.90
2022-09-10T10:34:45.646Z,19.20
2022-09-10T10:37:41.901Z,19.20
2022-09-10T10:40:16.320Z,19.45
2022-09-10T10:43:21.002Z,19.45
2022-09-10T10:46:10.008Z,19.82
2022-09-10T10:49:16.006Z,19.82
2022-09-10T10:52:12.108Z,19.80
2022-09-10T10:54:49.827Z,19.43
2022-09-10T10:57:30.678Z,19.64
2022-09-10T11:00:09.583Z,19.86
2022-09-10T11:03:07.173Z,20.13
2022-09-10T11:05:41.699Z,20.17
2022-09-10T11:08:20.614Z,20.35
2022-09-10T11:10:58.932Z,20.29
2022-09-10T11:13:32.181Z,20.41
2022-09-10T11:16:10.216Z,20.68
2022-09-10T11:18:43.039Z,20.21
2022-09-10T11:21:23.894Z,20.46
2022-09-10T11:24:16.969Z,20.72
2022-09-10T11:26:56.876Z,21.12
2022-09-10T11:29:28.853Z,20.64
2022-09-10T11:32:01.082Z,21.13
2022-09-10T11:34:41.921Z,20.76
2022-09-10T11:37:35.717Z,21.02
2022-09-10T11:40:09.727Z,21.42
2022-09-10T11:42:41.593Z,21.42
2022-09-10T11:45:36.491Z,21.69
2022-09-10T11:48:20.178Z,21.69
2022-09-10T11:50:57.989Z,21.82
2022-09-10T11:53:28.265Z,21.86
2022-09-10T11:56:33.403Z,22.09
2022-09-10T11:59:09.481Z,21.95
2022-09-10T12:02:02.366Z,22.15
2022-09-10T12:04:38.021Z,22.15
2022-09-10T12:07:14.605Z,22.53
2022-09-10T12:09:52.347Z,22.35
2022-09-10T12:12:27.088Z,22.35
2022-09-10T12:14:56.340Z,22.43
2022-09-10T12:17:31.154Z,22.34
2022-09-10T12:20:03.452Z,22.34
2022-09-10T12:22:38.216Z,22.62
2022-09-10T12:25:10.454Z,22.54
2022-09-10T12:27:56.059Z,22.72
2022-09-10T12:30:31.110Z,22.73
2022-09-10T12:33:02.655Z,22.69
2022-09-10T12:35:38.237Z,22.63
2022-09-10T12:38:43.760Z,23.25
2022-09-10T12:41:17.327Z,23.68
2022-09-10T12:43:49.316Z,23.68
2022-09-10T12:46:22.269Z,23.05
2022-09-10T12:48:56.712Z,23.29
2022-09-10T12:51:34.662Z,23.35
2022-09-10T12:54:18.453Z,23.35
2022-09-10T12:56:57.721Z,23.53
2022-09-10T12:59:38.350Z,23.53
2022-09-10T13:02:22.168Z,23.29
2022-09-10T13:05:09.575Z,23.29
2022-09-10T13:07:41.794Z,23.22
2022-09-10T13:10:25.695Z,23.22
2022-09-10T13:13:00.313Z,22.66
2022-09-10T13:15:32.256Z,22.89
2022-09-10T13:18:04.088Z,22.97
2022-09-10T13:20:35.683Z,23.24
2022-09-10T13:23:13.566Z,23.11
2022-09-10T13:25:44.627Z,22.66
2022-09-10T13:28:34.759Z,22.83
2022-09-10T13:31:13.285Z,22.59
2022-09-10T13:33:54.292Z,22.59
2022-09-10T13:36:31.727Z,22.75
2022-09-10T13:39:24.747Z,22.46
2022-09-10T13:42:00.316Z,22.46
2022-09-10T13:44:48.665Z,22.40
2022-09-10T13:47:29.332Z,22.28
2022-09-10T13:50:17.995Z,22.41
2022-09-10T13:52:50.124Z,22.70
2022-09-10T13:55:21.920Z,22.60
2022-09-10T13:57:55.088Z,22.52
2022-09-10T14:00:30.358Z,22.81
2022-09-10T14:03:01.826Z,22.53
2022-09-10T14:05:36.722Z,22.53
2022-09-10T14:08:14.768Z,22.52
2022-09-10T14:11:01.725Z,22.52
2022-09-10T14:13:33.621Z,22.53
2022-09-10T14:16:06.124Z,22.46
2022-09-10T14:18:38.124Z,22.46
2022-09-10T14:21:07.922Z,22.35
2022-09-10T14:23:38.881Z,22.42
2022-09-10T14:26:27.164Z,22.42
2022-09-10T14:28:59.834Z,22.64
2022-09-10T14:31:38.750Z,22.96
2022-09-10T14:34:28.766Z,22.96
2022-09-10T14:36:59.144Z,22.71
2022-09-10T14:39:28.660Z,22.54
2022-09-10T14:42:14.169Z,22.54
2022-09-10T14:44:44.459Z,22.53
2022-09-10T14:47:15.843Z,22.32
2022-09-10T14:49:48.050Z,22.26
2022-09-10T14:52:17.292Z,22.29
2022-09-10T14:54:47.580Z,22.30
2022-09-10T14:57:18.388Z,22.35
2022-09-10T14:59:48.006Z,22.11
2022-09-10T15:02:22.670Z,22.11
2022-09-10T15:04:52.496Z,22.08
2022-09-10T15:07:23.467Z,22.18
2022-09-10T15:09:53.798Z,22.01
2022-09-10T15:12:28.713Z,22.22
2022-09-10T15:14:59.599Z,22.07
2022-09-10T15:17:28.768Z,22.02
2022-09-10T15:19:58.137Z,21.97
2022-09-10T15:22:30.636Z,21.86
2022-09-10T15:25:15.371Z,21.90
2022-09-10T15:27:31.004Z,21.92
2022-09-10T15:30:00.432Z,21.92
2022-09-10T15:32:31.002Z,21.72
2022-09-10T15:35:00.013Z,21.72
2022-09-10T15:37:29.191Z,21.72
2022-09-10T15:39:58.614Z,21.69
2022-09-10T15:42:27.601Z,21.73
2022-09-10T15:44:56.589Z,21.64
2022-09-10T15:47:26.453Z,21.58
2022-09-10T15:49:56.971Z,21.77
2022-09-10T15:52:26.573Z,21.56
2022-09-10T15:54:55.598Z,21.44
2022-09-10T15:57:24.598Z,21.48
2022-09-10T15:59:54.525Z,21.48
2022-09-10T16:02:23.983Z,21.24
2022-09-10T16:04:54.115Z,21.26
2022-09-10T16:07:23.149Z,21.10
2022-09-10T16:09:52.237Z,21.10
2022-09-10T16:12:21.210Z,21.07
2022-09-10T16:14:51.874Z,21.09
2022-09-10T16:17:21.259Z,20.99
2022-09-10T16:19:51.793Z,20.99
2022-09-10T16:22:20.964Z,21.04
2022-09-10T16:24:50.138Z,20.94
2022-09-10T16:27:19.178Z,20.94
2022-09-10T16:29:48.724Z,20.80
2022-09-10T16:32:18.003Z,20.93
2022-09-10T16:34:46.912Z,20.81
2022-09-10T16:37:17.515Z,20.82
2022-09-10T16:39:46.603Z,20.67
2022-09-10T16:42:15.792Z,20.74
2022-09-10T16:44:44.797Z,20.77
2022-09-10T16:47:14.577Z,20.92
2022-09-10T16:49:43.602Z,20.76
2022-09-10T16:52:12.640Z,20.90
2022-09-10T16:54:42.499Z,20.68
2022-09-10T16:57:11.467Z,20.83
2022-09-10T16:59:40.446Z,20.83
2022-09-10T17:02:12.398Z,20.55
2022-09-10T17:04:41.425Z,20.71
2022-09-10T17:07:10.695Z,20.73
2022-09-10T17:09:39.870Z,20.65
2022-09-10T17:12:10.736Z,20.28
2022-09-10T17:14:39.761Z,20.28
2022-09-10T17:17:10.021Z,20.44
2022-09-10T17:19:39.208Z,20.35
2022-09-10T17:22:08.198Z,20.35
2022-09-10T17:24:37.435Z,20.40
2022-09-10T17:27:07.103Z,20.18
2022-09-10T17:29:36.120Z,20.18
2022-09-10T17:32:05.570Z,20.26
2022-09-10T17:34:34.529Z,20.26
2022-09-10T17:37:03.701Z,20.11
2022-09-10T17:39:32.918Z,20.33
2022-09-10T17:42:02.174Z,20.27
2022-09-10T17:44:31.328Z,20.27
2022-09-10T17:47:00.421Z,20.23
2022-09-10T17:49:29.546Z,20.08
2022-09-10T17:52:00.421Z,20.08
2022-09-10T17:54:29.431Z,20.12
2022-09-10T17:56:58.553Z,20.27
2022-09-10T17:59:27.620Z,20.11
2022-09-10T18:01:58.618Z,20.11
2022-09-10T18:04:28.195Z,20.08
2022-09-10T18:06:57.764Z,20.08
2022-09-10T18:09:27.522Z,20.24
2022-09-10T18:11:57.151Z,20.05
2022-09-10T18:14:26.432Z,19.89
2022-09-10T18:16:56.213Z,20.03
2022-09-10T18:19:25.710Z,20.03
2022-09-10T18:21:55.496Z,20.04
2022-09-10T18:24:25.222Z,20.01
2022-09-10T18:26:55.272Z,19.88
2022-09-10T18:29:27.153Z,20.12
2022-09-10T18:31:58.430Z,20.03
2022-09-10T18:34:30.197Z,20.01
2022-09-10T18:37:01.853Z,19.84
2022-09-10T18:39:33.745Z,19.91
2022-09-10T18:42:03.417Z,20.05
2022-09-10T18:44:36.583Z,19.94
2022-09-10T18:47:28.016Z,19.81
2022-09-10T18:49:42.502Z,19.81
2022-09-10T18:52:13.709Z,19.76
2022-09-10T18:54:46.452Z,19.69
2022-09-10T18:57:14.204Z,19.73
2022-09-10T18:59:43.164Z,20.00
2022-09-10T19:02:13.242Z,19.82
2022-09-10T19:05:07.315Z,19.80
2022-09-10T19:07:13.124Z,19.89
2022-09-10T19:09:42.025Z,19.89
2022-09-10T19:12:16.231Z,20.08
2022-09-10T19:14:43.364Z,19.77
2022-09-10T19:17:12.637Z,19.92
2022-09-10T19:19:41.797Z,19.82
2022-09-10T19:22:13.244Z,19.77
2022-09-10T19:24:54.421Z,19.86
2022-09-10T19:27:12.815Z,19.86
2022-09-10T19:29:42.450Z,19.87
2022-09-10T19:32:11.603Z,19.76
2022-09-10T19:34:40.888Z,19.72
2022-09-10T19:37:10.029Z,19.72
2022-09-10T19:39:39.085Z,19.78
2022-09-10T19:42:08.315Z,19.78
2022-09-10T19:44:37.269Z,19.97
2022-09-10T19:47:06.352Z,19.68
2022-09-10T19:49:35.620Z,19.57
2022-09-10T19:52:04.913Z,19.65
2022-09-10T19:54:33.921Z,19.65
2022-09-10T19:57:02.996Z,19.61
2022-09-10T19:59:32.162Z,19.48
2022-09-10T20:02:01.742Z,19.30
2022-09-10T20:04:30.979Z,19.37
2022-09-10T20:07:02.713Z,19.42
2022-09-10T20:09:31.795Z,19.42
2022-09-10T20:12:00.813Z,19.31
2022-09-10T20:14:30.297Z,19.20
2022-09-10T20:16:59.546Z,19.22
2022-09-10T20:19:29.603Z,19.36
2022-09-10T20:21:58.898Z,19.05
2022-09-10T20:24:28.610Z,19.12
2022-09-10T20:26:57.980Z,19.12
2022-09-10T20:29:28.727Z,19.18
2022-09-10T20:31:57.776Z,19.18
2022-09-10T20:34:27.691Z,19.15
2022-09-10T20:36:56.746Z,19.15
2022-09-10T20:39:25.996Z,19.08
2022-09-10T20:41:55.154Z,19.04
2022-09-10T20:44:24.668Z,19.04
2022-09-10T20:46:53.806Z,19.20
2022-09-10T20:49:22.841Z,18.94
2022-09-10T20:51:52.732Z,19.05
2022-09-10T20:54:21.699Z,19.05
2022-09-10T20:56:50.664Z,18.99
2022-09-10T20:59:24.309Z,19.17
2022-09-10T21:01:52.049Z,19.04
2022-09-10T21:04:22.106Z,19.04
2022-09-10T21:06:51.067Z,18.96
2022-09-10T21:09:20.065Z,19.00
2022-09-10T21:11:49.396Z,19.00
2022-09-10T21:14:18.938Z,18.75
2022-09-10T21:16:47.962Z,18.75
2022-09-10T21:19:17.989Z,18.83
2022-09-10T21:21:49.495Z,18.79
2022-09-10T21:24:22.612Z,18.59
2022-09-10T21:26:53.435Z,18.59
2022-09-10T21:29:23.164Z,18.62
2022-09-10T21:31:53.748Z,18.49
2022-09-10T21:34:23.557Z,18.49
2022-09-10T21:36:52.524Z,18.49
2022-09-10T21:39:21.497Z,18.48
2022-09-10T21:41:51.759Z,18.48
2022-09-10T21:44:25.196Z,18.33
2022-09-10T21:46:54.439Z,18.17
2022-09-10T21:49:23.393Z,18.17
2022-09-10T21:51:52.897Z,18.06
2022-09-10T21:54:23.264Z,18.08
2022-09-10T21:56:53.595Z,17.99
2022-09-10T21:59:23.398Z,17.99
2022-09-10T22:01:54.051Z,18.29
2022-09-10T22:04:23.483Z,18.02
2022-09-10T22:06:54.572Z,18.16
2022-09-10T22:09:24.501Z,18.16
2022-09-10T22:11:56.429Z,17.95
2022-09-10T22:14:26.775Z,18.20
2022-09-10T22:16:56.080Z,18.06
2022-09-10T22:19:27.479Z,18.06
2022-09-10T22:21:57.589Z,17.85
2022-09-10T22:24:28.118Z,17.85
2022-09-10T22:26:57.187Z,17.74
2022-09-10T22:29:26.173Z,17.81
2022-09-10T22:31:55.719Z,17.86
2022-09-10T22:34:24.944Z,17.76
2022-09-10T22:36:55.732Z,17.60
2022-09-10T22:39:24.712Z,17.76
2022-09-10T22:41:54.368Z,17.63
2022-09-10T22:44:23.578Z,17.63
2022-09-10T22:46:52.759Z,17.71
2022-09-10T22:49:22.157Z,17.71
2022-09-10T22:51:51.520Z,17.53
2022-09-10T22:54:20.417Z,17.72
2022-09-10T22:56:49.377Z,17.70
2022-09-10T22:59:18.530Z,17.70
2022-09-10T23:01:47.809Z,17.65
2022-09-10T23:04:17.372Z,17.46
2022-09-10T23:06:46.430Z,17.54
2022-09-10T23:09:17.972Z,17.31
2022-09-10T23:11:47.961Z,17.31
2022-09-10T23:14:21.755Z,17.25
2022-09-10T23:16:52.220Z,17.07
2022-09-10T23:19:24.228Z,16.98
2022-09-10T23:21:55.239Z,17.07
2022-09-10T23:24:26.690Z,16.77
2022-09-10T23:26:56.381Z,16.77
2022-09-10T23:29:25.569Z,16.91
2022-09-10T23:31:54.621Z,16.74
2022-09-10T23:34:24.028Z,16.77
2022-09-10T23:36:54.101Z,16.93
2022-09-10T23:39:25.319Z,16.93
2022-09-10T23:41:58.420Z,16.95
2022-09-10T23:44:28.802Z,16.65
2022-09-10T23:46:57.798Z,16.65
2022-09-10T23:49:26.757Z,16.62
2022-09-10T23:51:55.739Z,16.74
2022-09-10T23:54:25.012Z,16.74
2022-09-10T23:56:54.135Z,16.90
2022-09-10T23:59:23.093Z,16.89
